createdAt,value
2022-08-03T00:00:54.967Z,100.00
2022-08-03T00:06:03.532Z,100.00
2022-08-03T00:11:07.494Z,100.00
2022-08-03T00:16:13.243Z,100.00
2022-08-03T00:21:15.801Z,100.00
2022-08-03T00:26:18.390Z,100.00
2022-08-03T00:31:32.217Z,100.00
2022-08-03T00:36:44.797Z,100.00
2022-08-03T00:41:47.294Z,100.00
2022-08-03T00:46:51.164Z,100.00
2022-08-03T00:51:53.809Z,100.00
2022-08-03T00:56:59.973Z,100.00
2022-08-03T01:02:04.481Z,100.00
2022-08-03T01:07:14.979Z,100.00
2022-08-03T01:12:26.215Z,100.00
2022-08-03T01:17:36.772Z,100.00
2022-08-03T01:23:04.274Z,100.00
2022-08-03T01:28:26.434Z,100.00
2022-08-03T01:33:37.194Z,100.00
2022-08-03T01:38:44.378Z,100.00
2022-08-03T01:44:26.608Z,100.00
2022-08-03T01:49:15.252Z,100.00
2022-08-03T01:54:19.222Z,100.00
2022-08-03T01:59:23.096Z,100.00
2022-08-03T02:04:29.200Z,100.00
2022-08-03T02:09:32.889Z,100.00
2022-08-03T02:14:36.580Z,100.00
2022-08-03T02:19:41.547Z,100.00
2022-08-03T02:24:49.275Z,100.00
2022-08-03T02:30:01.398Z,100.00
2022-08-03T02:35:10.724Z,100.00
2022-08-03T02:40:16.091Z,100.00
2022-08-03T02:45:21.290Z,100.00
2022-08-03T02:50:27.517Z,100.00
2022-08-03T02:55:31.427Z,100.00
2022-08-03T03:00:34.435Z,100.00
2022-08-03T03:05:56.336Z,100.00
2022-08-03T03:11:01.713Z,100.00
2022-08-03T03:16:07.013Z,100.00
2022-08-03T03:21:11.731Z,100.00
2022-08-03T03:26:15.661Z,100.00
2022-08-03T03:31:18.225Z,100.00
2022-08-03T03:36:22.255Z,100.00
2022-08-03T03:41:25.166Z,100.00
2022-08-03T03:46:27.886Z,100.00
2022-08-03T03:51:31.928Z,100.00
2022-08-03T03:56:35.026Z,100.00
2022-08-03T04:01:37.543Z,100.00
2022-08-03T04:06:59.002Z,100.00
2022-08-03T04:12:03.516Z,100.00
2022-08-03T04:17:10.258Z,100.00
2022-08-03T04:22:18.606Z,100.00
2022-08-03T04:27:24.233Z,100.00
2022-08-03T04:32:28.704Z,100.00
2022-08-03T04:37:39.531Z,100.00
2022-08-03T04:42:43.976Z,100.00
2022-08-03T04:47:46.803Z,100.00
2022-08-03T04:52:51.408Z,100.00
2022-08-03T04:57:54.073Z,100.00
2022-08-03T05:02:56.718Z,100.00
2022-08-03T05:08:00.831Z,100.00
2022-08-03T05:13:06.027Z,100.00
2022-08-03T05:18:13.522Z,100.00
2022-08-03T05:23:18.178Z,100.00
2022-08-03T05:28:20.808Z,100.00
2022-08-03T05:33:23.328Z,100.00
2022-08-03T05:38:28.678Z,100.00
2022-08-03T05:43:36.979Z,100.00
2022-08-03T05:48:42.409Z,100.00
2022-08-03T05:53:46.404Z,100.00
2022-08-03T05:58:48.964Z,100.00
2022-08-03T06:03:52.031Z,100.00
2022-08-03T06:08:55.794Z,100.00
2022-08-03T06:13:58.208Z,100.00
2022-08-03T06:19:00.575Z,100.00
2022-08-03T06:24:04.462Z,100.00
2022-08-03T06:29:08.903Z,100.00
2022-08-03T06:34:34.225Z,100.00
2022-08-03T06:39:36.102Z,100.00
2022-08-03T06:44:38.696Z,100.00
2022-08-03T06:49:41.520Z,100.00
2022-08-03T06:54:45.331Z,100.00
2022-08-03T07:00:10.527Z,95.06
2022-08-03T07:05:10.898Z,92.23
2022-08-03T07:10:14.635Z,96.86
2022-08-03T07:15:20.141Z,97.88
2022-08-03T07:20:23.182Z,93.13
2022-08-03T07:25:26.956Z,85.70
2022-08-03T07:30:29.626Z,83.61
2022-08-03T07:35:32.043Z,80.95
2022-08-03T07:40:35.768Z,81.74
2022-08-03T07:45:38.175Z,81.16
2022-08-03T07:50:40.707Z,73.27
2022-08-03T07:55:44.505Z,65.29
2022-08-03T08:00:46.895Z,59.66
2022-08-03T08:05:49.390Z,58.45
2022-08-03T08:10:58.450Z,63.87
2022-08-03T08:16:01.298Z,66.55
2022-08-03T08:21:03.758Z,58.29
2022-08-03T08:26:07.978Z,54.31
2022-08-03T08:31:10.576Z,52.17
2022-08-03T08:36:15.385Z,50.74
2022-08-03T08:41:19.552Z,50.53
2022-08-03T08:46:22.940Z,50.15
2022-08-03T08:51:59.047Z,46.52
2022-08-03T08:56:54.391Z,44.54
2022-08-03T09:01:58.211Z,41.30
2022-08-03T09:07:19.105Z,41.05
2022-08-03T09:12:42.367Z,42.44
2022-08-03T09:17:48.968Z,41.14
2022-08-03T09:22:54.709Z,41.47
2022-08-03T09:28:04.809Z,41.70
2022-08-03T09:33:08.770Z,40.93
2022-08-03T09:38:14.186Z,40.26
2022-08-03T09:43:18.326Z,43.09
2022-08-03T09:48:27.587Z,41.25
2022-08-03T09:53:30.038Z,40.13
2022-08-03T09:58:33.767Z,37.54
2022-08-03T10:04:04.179Z,37.99
2022-08-03T10:09:07.545Z,36.63
2022-08-03T10:14:18.655Z,35.70
2022-08-03T10:19:21.116Z,38.42
2022-08-03T10:24:25.996Z,36.36
2022-08-03T10:29:30.546Z,35.95
2022-08-03T10:34:35.871Z,36.99
2022-08-03T10:39:38.286Z,38.41
2022-08-03T10:44:43.214Z,36.36
2022-08-03T10:49:46.701Z,35.78
2022-08-03T10:55:07.311Z,35.84
2022-08-03T11:00:14.050Z,35.90
2022-08-03T11:05:29.601Z,35.50
2022-08-03T11:10:32.622Z,36.11
2022-08-03T11:15:36.577Z,35.62
2022-08-03T11:20:44.965Z,35.92
2022-08-03T11:26:06.288Z,33.68
2022-08-03T11:31:48.864Z,33.79
2022-08-03T11:37:08.816Z,35.15
2022-08-03T11:42:29.986Z,35.34
2022-08-03T11:47:37.455Z,33.36
2022-08-03T11:52:53.806Z,34.82
2022-08-03T11:59:00.851Z,34.60
2022-08-03T12:03:23.383Z,34.15
2022-08-03T12:08:32.667Z,32.36
2022-08-03T12:14:08.816Z,31.29
2022-08-03T12:19:03.567Z,30.72
2022-08-03T12:24:06.436Z,32.48
2022-08-03T12:29:08.871Z,31.98
2022-08-03T12:34:13.578Z,32.20
2022-08-03T12:39:16.018Z,31.27
2022-08-03T12:44:18.513Z,30.55
2022-08-03T12:49:22.465Z,31.46
2022-08-03T12:54:25.829Z,30.10
2022-08-03T12:59:32.376Z,30.65
2022-08-03T13:04:38.834Z,33.63
2022-08-03T13:09:44.852Z,29.35
2022-08-03T13:14:48.374Z,31.18
2022-08-03T13:19:52.535Z,31.39
2022-08-03T13:24:57.389Z,31.12
2022-08-03T13:30:00.031Z,30.69
2022-08-03T13:35:05.474Z,32.67
2022-08-03T13:40:09.050Z,30.76
2022-08-03T13:45:14.168Z,30.60
2022-08-03T13:50:18.048Z,29.53
2022-08-03T13:55:20.490Z,29.43
2022-08-03T14:00:27.455Z,30.08
2022-08-03T14:05:32.751Z,29.77
2022-08-03T14:10:35.834Z,31.93
2022-08-03T14:15:38.776Z,32.47
2022-08-03T14:20:50.047Z,32.25
2022-08-03T14:25:54.318Z,31.98
2022-08-03T14:30:56.909Z,31.51
2022-08-03T14:36:00.679Z,32.83
2022-08-03T14:41:03.099Z,32.54
2022-08-03T14:46:06.996Z,32.14
2022-08-03T14:51:10.774Z,31.33
2022-08-03T14:56:13.216Z,32.05
2022-08-03T15:02:04.828Z,32.74
2022-08-03T15:06:39.659Z,32.02
2022-08-03T15:11:42.280Z,32.50
2022-08-03T15:16:44.713Z,32.82
2022-08-03T15:21:48.593Z,33.26
2022-08-03T15:26:51.561Z,35.05
2022-08-03T15:31:53.977Z,32.88
2022-08-03T15:36:57.834Z,34.27
2022-08-03T15:42:00.228Z,35.24
2022-08-03T15:47:02.705Z,34.88
2022-08-03T15:52:06.845Z,34.45
2022-08-03T15:57:09.268Z,35.33
2022-08-03T16:02:11.723Z,34.43
2022-08-03T16:07:16.247Z,35.58
2022-08-03T16:12:18.742Z,35.98
2022-08-03T16:17:21.775Z,37.32
2022-08-03T16:22:26.125Z,38.50
2022-08-03T16:27:56.890Z,39.18
2022-08-03T16:32:51.247Z,39.87
2022-08-03T16:37:56.429Z,38.85
2022-08-03T16:42:59.515Z,37.70
2022-08-03T16:48:05.503Z,37.59
2022-08-03T16:53:16.499Z,38.93
2022-08-03T16:58:34.253Z,37.43
2022-08-03T17:03:57.059Z,39.31
2022-08-03T17:09:09.208Z,39.74
2022-08-03T17:14:12.551Z,42.68
2022-08-03T17:19:15.414Z,45.34
2022-08-03T17:24:28.254Z,44.67
2022-08-03T17:29:34.878Z,48.25
2022-08-03T17:34:38.334Z,49.10
2022-08-03T17:39:59.920Z,50.29
2022-08-03T17:45:03.825Z,48.97
2022-08-03T17:50:23.359Z,49.94
2022-08-03T17:55:56.044Z,53.51
2022-08-03T18:02:00.869Z,56.35
2022-08-03T18:06:36.418Z,58.82
2022-08-03T18:11:43.149Z,59.71
2022-08-03T18:16:57.190Z,60.52
2022-08-03T18:22:03.520Z,63.07
2022-08-03T18:27:10.639Z,63.47
2022-08-03T18:32:16.897Z,64.74
2022-08-03T18:37:24.513Z,67.25
2022-08-03T18:42:28.873Z,70.01
2022-08-03T18:47:53.153Z,70.63
2022-08-03T18:52:59.567Z,72.29
2022-08-03T18:58:17.877Z,76.19
2022-08-03T19:03:24.161Z,82.89
2022-08-03T19:08:29.554Z,86.36
2022-08-03T19:13:40.362Z,90.33
2022-08-03T19:18:50.486Z,94.92
2022-08-03T19:23:55.483Z,98.55
2022-08-03T19:28:59.713Z,100.00
2022-08-03T19:34:03.446Z,100.00
2022-08-03T19:39:08.981Z,100.00
2022-08-03T19:44:12.792Z,100.00
2022-08-03T19:49:57.699Z,100.00
2022-08-03T19:54:53.058Z,100.00
2022-08-03T19:59:57.488Z,100.00
2022-08-03T20:05:01.617Z,100.00
2022-08-03T20:10:05.841Z,100.00
2022-08-03T20:15:10.758Z,100.00
2022-08-03T20:20:16.537Z,100.00
2022-08-03T20:25:23.424Z,100.00
2022-08-03T20:30:42.583Z,100.00
2022-08-03T20:35:49.401Z,100.00
2022-08-03T20:40:52.142Z,100.00
2022-08-03T20:46:01.103Z,100.00
2022-08-03T20:51:49.061Z,100.00
2022-08-03T20:56:42.122Z,100.00
2022-08-03T21:01:52.127Z,100.00
2022-08-03T21:07:00.661Z,100.00
2022-08-03T21:12:07.273Z,100.00
2022-08-03T21:17:19.423Z,100.00
2022-08-03T21:22:37.834Z,100.00
2022-08-03T21:27:41.105Z,100.00
2022-08-03T21:32:45.375Z,100.00
2022-08-03T21:38:10.625Z,100.00
2022-08-03T21:43:13.036Z,100.00
2022-08-03T21:48:16.190Z,100.00
2022-08-03T21:53:20.229Z,100.00
2022-08-03T21:58:27.891Z,100.00
2022-08-03T22:03:32.067Z,100.00
2022-08-03T22:08:55.770Z,100.00
2022-08-03T22:13:58.153Z,100.00
2022-08-03T22:19:00.587Z,100.00
2022-08-03T22:24:05.560Z,100.00
2022-08-03T22:29:08.567Z,100.00
2022-08-03T22:34:11.109Z,100.00
2022-08-03T22:39:25.505Z,100.00
2022-08-03T22:44:28.761Z,100.00
2022-08-03T22:49:31.982Z,100.00
2022-08-03T22:54:36.297Z,100.00
2022-08-03T22:59:42.043Z,100.00
2022-08-03T23:04:45.324Z,100.00
2022-08-03T23:09:49.752Z,100.00
2022-08-03T23:14:54.025Z,100.00
2022-08-03T23:19:57.063Z,100.00
2022-08-03T23:25:03.532Z,100.00
2022-08-03T23:30:06.610Z,100.00
2022-08-03T23:36:29.698Z,100.00
2022-08-03T23:40:51.214Z,100.00
2022-08-03T23:45:55.986Z,100.00
2022-08-03T23:51:00.213Z,100.00
2022-08-03T23:56:13.803Z,100.00
